createdAt,value
2023-04-11T00:00:18.567Z,97916.17
2023-04-11T00:03:06.350Z,97918.91
2023-04-11T00:05:34.326Z,97916.84
2023-04-11T00:08:02.044Z,97912.77
2023-04-11T00:10:29.993Z,97905.31
2023-04-11T00:12:57.830Z,97898.98
2023-04-11T00:15:25.699Z,97896.22
2023-04-11T00:17:53.760Z,97893.17
2023-04-11T00:20:22.157Z,97889.49
2023-04-11T00:22:49.975Z,97889.75
2023-04-11T00:25:17.881Z,97883.13
2023-04-11T00:27:45.969Z,97881.69
2023-04-11T00:30:13.890Z,97869.89
2023-04-11T00:32:41.864Z,97864.86
2023-04-11T00:35:09.595Z,97859.44
2023-04-11T00:37:37.438Z,97861.19
2023-04-11T00:40:05.662Z,97863.20
2023-04-11T00:42:33.763Z,97857.58
2023-04-11T00:45:01.713Z,97852.70
2023-04-11T00:47:32.167Z,97848.21
2023-04-11T00:50:00.317Z,97843.96
2023-04-11T00:52:28.245Z,97844.05
2023-04-11T00:54:56.112Z,97839.60
2023-04-11T00:57:24.190Z,97835.38
2023-04-11T00:59:52.060Z,97834.63
2023-04-11T01:02:20.061Z,97834.27
2023-04-11T01:04:48.013Z,97830.04
2023-04-11T01:07:16.174Z,97828.63
2023-04-11T01:09:44.291Z,97832.91
2023-04-11T01:12:12.475Z,97831.40
2023-04-11T01:14:43.739Z,97830.52
2023-04-11T01:17:11.612Z,97832.89
2023-04-11T01:19:39.316Z,97831.20
2023-04-11T01:22:07.978Z,97830.26
2023-04-11T01:24:35.965Z,97823.54
2023-04-11T01:27:03.739Z,97821.63
2023-04-11T01:29:31.963Z,97823.52
2023-04-11T01:32:02.291Z,97812.07
2023-04-11T01:34:31.027Z,97810.36
2023-04-11T01:36:59.052Z,97808.49
2023-04-11T01:39:26.841Z,97805.89
2023-04-11T01:41:55.539Z,97802.60
2023-04-11T01:44:24.352Z,97801.67
2023-04-11T01:46:52.266Z,97802.52
2023-04-11T01:49:19.994Z,97803.38
2023-04-11T01:51:48.263Z,97803.95
2023-04-11T01:54:15.962Z,97807.23
2023-04-11T01:56:43.816Z,97806.87
2023-04-11T01:59:11.569Z,97806.06
2023-04-11T02:01:42.587Z,97798.67
2023-04-11T02:04:10.678Z,97796.27
2023-04-11T02:06:42.146Z,97790.80
2023-04-11T02:09:09.886Z,97785.73
2023-04-11T02:11:37.980Z,97784.83
2023-04-11T02:14:05.759Z,97774.14
2023-04-11T02:16:33.464Z,97767.20
2023-04-11T02:19:01.549Z,97760.52
2023-04-11T02:21:32.106Z,97760.58
2023-04-11T02:24:00.717Z,97759.06
2023-04-11T02:26:28.793Z,97755.29
2023-04-11T02:28:57.317Z,97749.14
2023-04-11T02:31:25.228Z,97749.27
2023-04-11T02:33:53.339Z,97750.97
2023-04-11T02:36:21.148Z,97742.19
2023-04-11T02:38:48.851Z,97740.14
2023-04-11T02:41:16.805Z,97734.54
2023-04-11T02:43:44.956Z,97735.16
2023-04-11T02:46:13.453Z,97736.79
2023-04-11T02:48:46.729Z,97736.95
2023-04-11T02:51:14.937Z,97738.98
2023-04-11T02:53:47.978Z,97734.41
2023-04-11T02:56:18.770Z,97736.13
2023-04-11T02:58:48.281Z,97735.13
2023-04-11T03:01:17.559Z,97728.45
2023-04-11T03:03:45.738Z,97727.72
2023-04-11T03:06:13.924Z,97723.57
2023-04-11T03:08:42.036Z,97720.11
2023-04-11T03:11:13.015Z,97722.61
2023-04-11T03:13:41.907Z,97721.29
2023-04-11T03:16:10.002Z,97718.48
2023-04-11T03:18:37.915Z,97718.35
2023-04-11T03:21:07.603Z,97719.17
2023-04-11T03:23:35.803Z,97716.20
2023-04-11T03:26:04.729Z,97715.39
2023-04-11T03:28:33.682Z,97712.89
2023-04-11T03:31:01.722Z,97710.82
2023-04-11T03:33:29.718Z,97703.66
2023-04-11T03:35:57.663Z,97703.39
2023-04-11T03:38:25.720Z,97701.98
2023-04-11T03:40:53.765Z,97703.26
2023-04-11T03:43:26.577Z,97698.96
2023-04-11T03:45:58.025Z,97698.05
2023-04-11T03:48:43.991Z,97692.98
2023-04-11T03:51:11.791Z,97687.66
2023-04-11T03:53:45.073Z,97683.00
2023-04-11T03:56:24.235Z,97683.27
2023-04-11T03:58:53.475Z,97681.68
2023-04-11T04:01:24.631Z,97680.38
2023-04-11T04:03:59.228Z,97677.59
2023-04-11T04:06:38.293Z,97676.77
2023-04-11T04:09:09.906Z,97675.34
2023-04-11T04:11:48.050Z,97675.38
2023-04-11T04:14:17.392Z,97672.20
2023-04-11T04:16:45.393Z,97672.95
2023-04-11T04:19:13.937Z,97672.02
2023-04-11T04:21:45.033Z,97669.98
2023-04-11T04:24:13.241Z,97665.18
2023-04-11T04:26:55.879Z,97663.40
2023-04-11T04:29:36.501Z,97662.81
2023-04-11T04:32:05.569Z,97656.19
2023-04-11T04:34:42.393Z,97651.94
2023-04-11T04:37:13.291Z,97646.77
2023-04-11T04:39:41.813Z,97642.91
2023-04-11T04:42:10.141Z,97638.92
2023-04-11T04:44:40.284Z,97637.59
2023-04-11T04:47:15.744Z,97634.98
2023-04-11T04:49:44.195Z,97639.58
2023-04-11T04:52:12.790Z,97637.39
2023-04-11T04:54:40.548Z,97635.86
2023-04-11T04:57:09.116Z,97629.48
2023-04-11T04:59:36.930Z,97622.17
2023-04-11T05:02:10.441Z,97616.55
2023-04-11T05:04:38.450Z,97616.63
2023-04-11T05:07:06.307Z,97610.45
2023-04-11T05:09:35.128Z,97612.23
2023-04-11T05:12:09.718Z,97612.35
2023-04-11T05:14:38.603Z,97614.84
2023-04-11T05:17:06.556Z,97606.27
2023-04-11T05:19:35.432Z,97603.58
2023-04-11T05:22:04.290Z,97600.30
2023-04-11T05:24:33.023Z,97593.30
2023-04-11T05:27:02.028Z,97591.48
2023-04-11T05:29:30.028Z,97591.91
2023-04-11T05:32:01.828Z,97585.16
2023-04-11T05:34:32.829Z,97583.97
2023-04-11T05:37:00.921Z,97584.39
2023-04-11T05:39:28.737Z,97583.06
2023-04-11T05:41:57.307Z,97578.73
2023-04-11T05:44:25.143Z,97575.29
2023-04-11T05:46:52.898Z,97572.54
2023-04-11T05:49:20.864Z,97568.56
2023-04-11T05:51:48.817Z,97565.19
2023-04-11T05:54:30.706Z,97558.16
2023-04-11T05:56:58.577Z,97554.92
2023-04-11T05:59:28.337Z,97549.64
2023-04-11T06:01:56.757Z,97541.93
2023-04-11T06:04:25.070Z,97538.54
2023-04-11T06:06:53.665Z,97537.47
2023-04-11T06:09:21.522Z,97533.84
2023-04-11T06:11:49.485Z,97529.53
2023-04-11T06:14:17.533Z,97523.39
2023-04-11T06:16:53.018Z,97514.59
2023-04-11T06:19:20.849Z,97515.55
2023-04-11T06:21:48.639Z,97514.01
2023-04-11T06:24:16.398Z,97513.17
2023-04-11T06:26:44.423Z,97509.92
2023-04-11T06:29:12.165Z,97510.70
2023-04-11T06:31:40.329Z,97510.61
2023-04-11T06:34:08.328Z,97510.14
2023-04-11T06:36:36.341Z,97505.40
2023-04-11T06:39:04.306Z,97504.27
2023-04-11T06:41:32.403Z,97500.72
2023-04-11T06:44:00.363Z,97498.33
2023-04-11T06:46:28.416Z,97495.73
2023-04-11T06:48:58.473Z,97496.99
2023-04-11T06:51:31.931Z,97492.02
2023-04-11T06:54:08.603Z,97492.84
2023-04-11T06:57:05.704Z,97491.91
2023-04-11T06:59:45.741Z,97488.38
2023-04-11T07:02:14.354Z,97488.23
2023-04-11T07:05:03.185Z,97486.98
2023-04-11T07:07:31.322Z,97486.31
2023-04-11T07:09:59.295Z,97486.17
2023-04-11T07:12:30.466Z,97481.64
2023-04-11T07:14:58.647Z,97470.93
2023-04-11T07:17:26.944Z,97463.21
2023-04-11T07:20:03.251Z,97455.09
2023-04-11T07:22:33.852Z,97454.80
2023-04-11T07:25:09.774Z,97450.75
2023-04-11T07:27:38.409Z,97446.79
2023-04-11T07:30:15.380Z,97442.20
2023-04-11T07:32:50.914Z,97439.98
2023-04-11T07:35:32.283Z,97440.54
2023-04-11T07:38:03.670Z,97443.13
2023-04-11T07:40:41.498Z,97446.00
2023-04-11T07:43:15.036Z,97444.14
2023-04-11T07:45:48.694Z,97442.90
2023-04-11T07:48:16.709Z,97441.59
2023-04-11T07:50:44.582Z,97437.34
2023-04-11T07:53:18.147Z,97430.64
2023-04-11T07:56:18.019Z,97432.17
2023-04-11T07:58:57.864Z,97429.29
2023-04-11T08:01:48.589Z,97412.11
2023-04-11T08:04:19.306Z,97411.23
2023-04-11T08:06:52.293Z,97401.56
2023-04-11T08:09:42.909Z,97392.50
2023-04-11T08:12:13.930Z,97383.63
2023-04-11T08:15:09.479Z,97373.81
2023-04-11T08:17:47.146Z,97366.90
2023-04-11T08:20:27.270Z,97367.02
2023-04-11T08:22:57.657Z,97368.36
2023-04-11T08:25:25.699Z,97368.17
2023-04-11T08:27:53.708Z,97369.52
2023-04-11T08:30:24.248Z,97372.17
2023-04-11T08:32:52.231Z,97369.92
2023-04-11T08:35:20.363Z,97364.79
2023-04-11T08:37:48.291Z,97361.56
2023-04-11T08:40:19.039Z,97356.49
2023-04-11T08:42:50.191Z,97351.10
2023-04-11T08:45:20.582Z,97352.42
2023-04-11T08:47:54.608Z,97354.03
2023-04-11T08:50:27.794Z,97354.42
2023-04-11T08:53:00.793Z,97348.60
2023-04-11T08:55:31.797Z,97346.44
2023-04-11T08:58:19.975Z,97346.72
2023-04-11T09:00:48.043Z,97344.02
2023-04-11T09:03:16.708Z,97339.82
2023-04-11T09:05:45.585Z,97333.13
2023-04-11T09:08:14.591Z,97332.95
2023-04-11T09:10:45.608Z,97332.70
2023-04-11T09:13:24.537Z,97330.53
2023-04-11T09:16:12.775Z,97325.76
2023-04-11T09:19:01.903Z,97325.81
2023-04-11T09:21:30.830Z,97319.88
2023-04-11T09:24:15.476Z,97309.61
2023-04-11T09:26:49.019Z,97308.20
2023-04-11T09:29:46.244Z,97301.09
2023-04-11T09:32:34.514Z,97297.35
2023-04-11T09:35:09.073Z,97290.14
2023-04-11T09:37:58.162Z,97285.70
2023-04-11T09:40:27.360Z,97281.46
2023-04-11T09:43:01.817Z,97278.38
2023-04-11T09:45:32.162Z,97270.96
2023-04-11T09:48:14.670Z,97269.36
2023-04-11T09:50:49.338Z,97256.49
2023-04-11T09:53:17.677Z,97251.63
2023-04-11T09:55:48.206Z,97249.44
2023-04-11T09:58:31.257Z,97243.00
2023-04-11T10:01:25.299Z,97241.67
2023-04-11T10:03:53.753Z,97233.69
2023-04-11T10:06:27.973Z,97231.02
2023-04-11T10:09:09.363Z,97235.23
2023-04-11T10:12:03.150Z,97228.45
2023-04-11T10:14:42.730Z,97229.20
2023-04-11T10:17:17.673Z,97225.34
2023-04-11T10:19:58.212Z,97223.42
2023-04-11T10:23:01.842Z,97217.95
2023-04-11T10:26:09.869Z,97212.34
2023-04-11T10:28:57.937Z,97208.93
2023-04-11T10:32:02.506Z,97208.58
2023-04-11T10:34:57.044Z,97209.02
2023-04-11T10:37:48.338Z,97204.65
2023-04-11T10:40:16.330Z,97193.57
2023-04-11T10:43:05.218Z,97192.35
2023-04-11T10:45:47.641Z,97193.05
2023-04-11T10:48:41.907Z,97188.77
2023-04-11T10:51:51.361Z,97185.17
2023-04-11T10:54:47.416Z,97187.58
2023-04-11T10:57:56.399Z,97186.35
2023-04-11T11:00:48.048Z,97184.00
2023-04-11T11:03:31.031Z,97184.50
2023-04-11T11:06:07.030Z,97184.13
2023-04-11T11:08:36.181Z,97177.66
2023-04-11T11:11:08.708Z,97175.48
2023-04-11T11:13:55.785Z,97174.60
2023-04-11T11:16:45.133Z,97173.50
2023-04-11T11:19:36.864Z,97165.14
2023-04-11T11:22:14.453Z,97158.60
2023-04-11T11:24:45.680Z,97157.84
2023-04-11T11:27:43.126Z,97156.11
2023-04-11T11:30:31.790Z,97152.42
2023-04-11T11:36:43.594Z,97144.67
2023-04-11T11:39:12.291Z,97142.11
2023-04-11T11:42:00.494Z,97145.73
2023-04-11T11:44:48.808Z,97139.89
2023-04-11T11:47:29.635Z,97138.27
2023-04-11T11:50:24.577Z,97138.20
2023-04-11T11:52:58.092Z,97137.98
2023-04-11T11:55:35.397Z,97131.91
2023-04-11T11:58:15.624Z,97135.23
2023-04-11T12:00:55.261Z,97134.22
2023-04-11T12:03:43.727Z,97130.87
2023-04-11T12:06:17.620Z,97126.80
2023-04-11T12:09:23.045Z,97130.34
2023-04-11T12:11:54.727Z,97129.76
2023-04-11T12:14:23.187Z,97124.48
2023-04-11T12:17:04.824Z,97121.48
2023-04-11T12:19:46.548Z,97117.54
2023-04-11T12:22:35.158Z,97113.30
2023-04-11T12:25:26.686Z,97113.08
2023-04-11T12:27:57.475Z,97111.64
2023-04-11T12:30:30.018Z,97109.73
2023-04-11T12:33:03.241Z,97106.32
2023-04-11T12:35:41.798Z,97105.41
2023-04-11T12:38:41.320Z,97097.27
2023-04-11T12:41:31.010Z,97097.77
2023-04-11T12:44:25.284Z,97097.25
2023-04-11T12:47:03.025Z,97088.90
2023-04-11T12:49:31.398Z,97085.48
2023-04-11T12:52:08.764Z,97090.25
2023-04-11T12:55:07.070Z,97086.80
2023-04-11T12:57:44.805Z,97081.21
2023-04-11T13:00:25.550Z,97073.55
2023-04-11T13:03:17.304Z,97070.02
2023-04-11T13:06:20.095Z,97063.95
2023-04-11T13:09:11.692Z,97064.08
2023-04-11T13:12:21.518Z,97057.48
2023-04-11T13:14:49.373Z,97055.80
2023-04-11T13:17:17.270Z,97057.00
2023-04-11T13:19:53.594Z,97058.71
2023-04-11T13:22:45.719Z,97057.29
2023-04-11T13:25:13.927Z,97057.33
2023-04-11T13:27:59.673Z,97057.58
2023-04-11T13:30:28.339Z,97060.96
2023-04-11T13:33:17.021Z,97056.56
2023-04-11T13:35:47.864Z,97046.05
2023-04-11T13:38:30.873Z,97047.00
2023-04-11T13:40:59.337Z,97041.02
2023-04-11T13:43:30.149Z,97037.77
2023-04-11T13:46:00.893Z,97029.92
2023-04-11T13:48:29.034Z,97032.86
2023-04-11T13:50:59.256Z,97028.75
2023-04-11T13:53:31.034Z,97019.94
2023-04-11T13:56:02.105Z,97017.17
2023-04-11T13:58:36.397Z,97016.52
2023-04-11T14:01:04.492Z,97016.20
2023-04-11T14:03:38.294Z,97010.59
2023-04-11T14:06:06.646Z,97006.73
2023-04-11T14:08:48.590Z,97005.13
2023-04-11T14:11:43.584Z,97004.25
2023-04-11T14:17:55.301Z,96998.25
2023-04-11T14:20:34.339Z,96994.14
2023-04-11T14:23:31.105Z,96995.25
2023-04-11T14:26:30.545Z,96993.55
2023-04-11T14:29:23.177Z,96993.18
2023-04-11T14:32:21.262Z,96989.24
2023-04-11T14:35:02.365Z,96988.20
2023-04-11T14:37:52.678Z,96986.36
2023-04-11T14:40:41.246Z,96982.85
2023-04-11T14:43:49.555Z,96979.99
2023-04-11T14:46:27.340Z,96984.81
2023-04-11T14:49:35.375Z,96982.16
2023-04-11T14:52:18.247Z,96981.43
2023-04-11T14:55:26.351Z,96976.43
2023-04-11T14:58:01.943Z,96979.80
2023-04-11T15:00:40.010Z,96979.64
2023-04-11T15:03:28.452Z,96976.67
2023-04-11T15:06:12.790Z,96979.16
2023-04-11T15:09:02.523Z,96980.05
2023-04-11T15:11:46.677Z,96980.92
2023-04-11T15:14:35.502Z,96980.34
2023-04-11T15:17:27.524Z,96983.60
2023-04-11T15:19:55.865Z,96990.08
2023-04-11T15:22:47.170Z,96984.94
2023-04-11T15:25:27.806Z,96990.08
2023-04-11T15:27:55.737Z,96989.86
2023-04-11T15:30:23.608Z,96991.05
2023-04-11T15:33:05.292Z,96987.45
2023-04-11T15:35:55.106Z,96993.77
2023-04-11T15:38:42.324Z,96996.78
2023-04-11T15:41:15.457Z,96995.05
2023-04-11T15:43:55.265Z,96995.48
2023-04-11T15:46:36.932Z,96998.84
2023-04-11T15:49:25.514Z,97002.09
2023-04-11T15:52:31.573Z,97006.86
2023-04-11T15:55:14.846Z,97004.41
2023-04-11T15:58:02.981Z,97008.41
2023-04-11T16:00:51.512Z,97007.51
2023-04-11T16:03:32.682Z,97009.02
2023-04-11T16:06:01.402Z,97010.60
2023-04-11T16:08:49.595Z,97015.14
2023-04-11T16:11:40.094Z,97017.45
2023-04-11T16:14:28.476Z,97020.05
2023-04-11T16:17:19.268Z,97025.02
2023-04-11T16:19:49.650Z,97028.30
2023-04-11T16:22:26.650Z,97030.52
2023-04-11T16:24:57.118Z,97036.72
2023-04-11T16:27:35.201Z,97043.09
2023-04-11T16:30:04.389Z,97046.38
2023-04-11T16:32:32.659Z,97055.18
2023-04-11T16:35:07.178Z,97055.83
2023-04-11T16:37:42.762Z,97046.51
2023-04-11T16:40:13.199Z,97050.52
2023-04-11T16:43:11.694Z,97051.89
2023-04-11T16:45:40.160Z,97053.55
2023-04-11T16:48:13.326Z,97055.29
2023-04-11T16:50:41.736Z,97053.13
2023-04-11T16:53:09.955Z,97061.14
2023-04-11T16:55:38.120Z,97058.46
2023-04-11T16:58:06.280Z,97061.02
2023-04-11T17:00:34.220Z,97057.44
2023-04-11T17:03:06.530Z,97058.15
2023-04-11T17:05:36.280Z,97053.27
2023-04-11T17:08:04.046Z,97055.13
2023-04-11T17:10:31.972Z,97055.73
2023-04-11T17:12:59.797Z,97054.86
2023-04-11T17:15:28.011Z,97051.25
2023-04-11T17:17:56.285Z,97054.37
2023-04-11T17:20:24.760Z,97060.73
2023-04-11T17:22:54.181Z,97065.00
2023-04-11T17:25:22.134Z,97068.17
2023-04-11T17:27:50.240Z,97068.55
2023-04-11T17:30:18.507Z,97064.94
2023-04-11T17:32:47.797Z,97068.90
2023-04-11T17:35:16.699Z,97074.14
2023-04-11T17:37:45.252Z,97078.84
2023-04-11T17:40:13.469Z,97079.48
2023-04-11T17:46:07.117Z,97085.98
2023-04-11T17:52:15.442Z,97098.30
2023-04-11T17:54:55.754Z,97100.29
2023-04-11T17:57:25.421Z,97103.80
2023-04-11T18:00:25.139Z,97109.15
2023-04-11T18:03:17.076Z,97114.43
2023-04-11T18:06:25.250Z,97131.48
2023-04-11T18:08:53.246Z,97132.69
2023-04-11T18:11:21.478Z,97141.23
2023-04-11T18:13:50.530Z,97139.05
2023-04-11T18:16:19.077Z,97145.05
2023-04-11T18:18:48.476Z,97147.60
2023-04-11T18:21:17.048Z,97148.86
2023-04-11T18:23:45.068Z,97161.30
2023-04-11T18:26:12.911Z,97161.70
2023-04-11T18:28:41.083Z,97167.17
2023-04-11T18:31:09.795Z,97168.67
2023-04-11T18:33:59.083Z,97175.46
2023-04-11T18:36:26.409Z,97175.68
2023-04-11T18:38:58.214Z,97179.59
2023-04-11T18:41:26.868Z,97176.37
2023-04-11T18:43:55.341Z,97178.93
2023-04-11T18:46:23.404Z,97176.78
2023-04-11T18:48:51.373Z,97177.67
2023-04-11T18:51:20.174Z,97179.23
2023-04-11T18:53:48.185Z,97176.77
2023-04-11T18:56:16.432Z,97177.04
2023-04-11T18:58:46.693Z,97176.77
2023-04-11T19:01:17.842Z,97179.70
2023-04-11T20:25:32.961Z,97193.97
2023-04-11T20:27:59.929Z,97196.36
2023-04-11T20:30:26.596Z,97197.77
2023-04-11T20:32:54.111Z,97197.13
2023-04-11T20:35:20.806Z,97198.85
2023-04-11T20:37:47.218Z,97195.85
2023-04-11T20:40:14.524Z,97192.03
2023-04-11T20:42:43.841Z,97191.05
2023-04-11T20:45:19.372Z,97188.89
2023-04-11T20:47:45.948Z,97186.63
2023-04-11T20:50:13.299Z,97187.61
2023-04-11T20:52:40.819Z,97189.91
2023-04-11T20:55:08.247Z,97193.40
2023-04-11T20:57:34.588Z,97194.99
2023-04-11T21:00:03.209Z,97194.81
2023-04-11T21:02:31.144Z,97194.96
2023-04-11T21:04:57.644Z,97191.64
2023-04-11T21:07:24.162Z,97190.55
2023-04-11T21:09:50.715Z,97187.42
2023-04-11T21:12:17.058Z,97189.27
2023-04-11T21:14:43.615Z,97190.83
2023-04-11T21:17:10.239Z,97188.53
2023-04-11T21:19:36.920Z,97190.18
2023-04-11T21:22:03.915Z,97190.70
2023-04-11T21:24:31.194Z,97189.46
2023-04-11T21:26:57.724Z,97191.12
2023-04-11T21:29:24.059Z,97190.06
2023-04-11T21:31:50.488Z,97188.88
2023-04-11T21:34:16.879Z,97193.55
2023-04-11T21:36:43.207Z,97197.55
2023-04-11T21:39:09.639Z,97195.33
2023-04-11T21:41:36.297Z,97197.98
2023-04-11T21:44:02.631Z,97194.59
2023-04-11T21:46:29.115Z,97192.86
2023-04-11T21:48:55.503Z,97191.89
2023-04-11T21:51:21.897Z,97195.73
2023-04-11T21:53:48.290Z,97193.68
2023-04-11T21:56:14.640Z,97195.44
2023-04-11T21:58:40.927Z,97200.64
2023-04-11T22:01:09.469Z,97196.20
2023-04-11T22:03:35.849Z,97199.13
2023-04-11T22:06:02.232Z,97196.69
2023-04-11T22:08:28.591Z,97193.63
2023-04-11T22:10:55.605Z,97193.50
2023-04-11T22:13:22.198Z,97194.52
2023-04-11T22:15:49.143Z,97190.74
2023-04-11T22:18:15.395Z,97189.96
2023-04-11T22:20:42.868Z,97191.85
2023-04-11T22:23:09.679Z,97193.50
2023-04-11T22:25:36.542Z,97195.34
2023-04-11T22:28:02.925Z,97196.33
2023-04-11T22:30:29.593Z,97199.48
2023-04-11T22:32:56.111Z,97196.98
2023-04-11T22:35:22.591Z,97200.96
2023-04-11T22:37:48.937Z,97199.71
2023-04-11T22:40:15.352Z,97196.86
2023-04-11T22:42:41.819Z,97199.75
2023-04-11T22:45:08.463Z,97194.55
2023-04-11T22:47:34.836Z,97196.63
2023-04-11T22:50:01.318Z,97194.81
2023-04-11T22:52:27.637Z,97196.13
2023-04-11T22:54:54.124Z,97198.08
2023-04-11T22:57:20.532Z,97195.41
2023-04-11T22:59:46.994Z,97197.41
2023-04-11T23:02:13.355Z,97195.52
2023-04-11T23:04:39.734Z,97193.44
2023-04-11T23:07:06.068Z,97189.88
2023-04-11T23:09:32.487Z,97194.26
2023-04-11T23:11:58.839Z,97191.41
2023-04-11T23:14:27.940Z,97194.58
2023-04-11T23:16:54.301Z,97197.15
2023-04-11T23:19:20.785Z,97194.71
2023-04-11T23:21:47.313Z,97194.84
2023-04-11T23:24:13.723Z,97195.24
2023-04-11T23:26:40.098Z,97194.02
2023-04-11T23:29:06.450Z,97195.27
2023-04-11T23:31:32.970Z,97194.17
2023-04-11T23:33:59.697Z,97192.60
2023-04-11T23:36:26.632Z,97192.00
2023-04-11T23:38:53.130Z,97192.20
2023-04-11T23:41:19.466Z,97193.22
2023-04-11T23:43:45.899Z,97191.87
2023-04-11T23:46:13.025Z,97191.41
2023-04-11T23:48:39.691Z,97193.61
2023-04-11T23:51:06.174Z,97191.04
2023-04-11T23:53:32.631Z,97189.83
2023-04-11T23:56:02.170Z,97186.33
2023-04-11T23:58:28.653Z,97187.52
